Bei Facebook empfehlenBei Twitter postenGoogle plusPinterest

Das Wetter im Erzgebirge am 14.08.2017

Wetter und Klima am 14.08.2017 Holzhau im Erzgebirge (630m ü.NN)
Letzte gemessene Temperatur und Uhrzeit der Messung23:45:00 Uhr10.30 °C
Temperatur (Maximum / Höchstwert) und Uhrzeit der Messung13:30:00 Uhr22.50 °C
Temperatur (Minimum / Tiefstwert) und Uhrzeit der Messung05:45:006.70 °C
Errechneter Absolutwert der Temperaturschwankungen zwischen Tmin und Tmax des Tages15.80 K
Errechnete Tagesmitteltemperatur14.51667 °C
Gesamt - Niederschlag des Tages (in flüssiger Form)0.00 Liter / m²
Luftdruck (Maximum / Höchstwert) und Zeitpunkt der Messung12:45:00 Uhr1020.80 hPa
Luftdruck (Minimum / Tiefstwert) und Zeitpunkt der Messung19:15:00 Uhr1019.30 hPa
Errechneter Absolutwert der Luftdruckschwankungen des Tages1.50 hPa
Höchste gemessene Windgeschwindigkeit und Uhrzeit der Messung07:00:00 Uhr30.96 km/h
Errechnete Windhäufigkeit in Relation zu den Messwerten des Tages10.41667 %
Niedrigste Windkühle (Windchill) und Zeitpunkt der Messung07:00:00 Uhr6.20 °C
Taupunkt (Maximum / Höchstwert) und Uhrzeit der Messung11:15:00 Uhr13.60 °C
Taupunkt (Minimum / Tiefstwert) und Uhrzeit der Messung05:45:005.80 °C
Anzahl der automatisch eingelesenen Messwerte 96

Detaillierte Wetter- und Klima- Messwerte für den 14.08.2017 in Holzhau im Erzgebirge (630m ü.NN)
ZeitTemperaturLuftdruckRel. LuftfeuchteWindWindrichtungWindchillTaupunktNiederschlag l/m²
23:45:0010.30 °C1019.60 hPa87.00 %8.20 °C 
23:30:0010.20 °C1019.60 hPa88.00 %5.04 km/hSO10.20 °C8.30 °C 
23:15:0010.20 °C1019.60 hPa87.00 %8.10 °C 
23:00:0010.20 °C1019.70 hPa86.00 %8.00 °C 
22:45:0010.40 °C1019.70 hPa85.00 %8.00 °C 
22:30:0010.70 °C1019.60 hPa86.00 %6.48 km/hSO10.70 °C8.50 °C 
22:15:0010.80 °C1019.60 hPa84.00 %8.20 °C 
22:00:0011.20 °C1019.60 hPa83.00 %8.40 °C 
21:45:0011.60 °C1019.60 hPa83.00 %8.80 °C 
21:30:0011.90 °C1019.60 hPa82.00 %8.90 °C 
21:15:0012.30 °C1019.70 hPa81.00 %9.10 °C 
21:00:0012.80 °C1019.60 hPa79.00 %9.30 °C 
20:45:0013.40 °C1019.50 hPa78.00 %9.60 °C 
20:30:0014.10 °C1019.50 hPa75.00 %9.70 °C 
20:15:0015.10 °C1019.50 hPa72.00 %10.10 °C 
20:00:0016.30 °C1019.50 hPa70.00 %10.80 °C 
19:45:0017.60 °C1019.60 hPa66.00 %11.20 °C 
19:30:0018.50 °C1019.50 hPa62.00 %11.10 °C 
19:15:0019.40 °C1019.30 hPa60.00 %11.40 °C 
19:00:0020.10 °C1019.40 hPa58.00 %11.60 °C 
18:45:0020.80 °C1019.60 hPa57.00 %12.00 °C 
18:30:0021.00 °C1019.60 hPa56.00 %11.90 °C 
18:15:0021.30 °C1019.60 hPa55.00 %11.90 °C 
18:00:0021.70 °C1019.60 hPa56.00 %12.50 °C 
17:45:0021.60 °C1019.70 hPa57.00 %15.48 km/hSO21.60 °C12.70 °C 
17:30:0021.10 °C1019.70 hPa60.00 %13.00 °C 
17:15:0019.80 °C1019.70 hPa63.00 %12.60 °C 
17:00:0019.40 °C1019.90 hPa62.00 %11.90 °C 
16:45:0019.80 °C1019.80 hPa62.00 %12.30 °C 
16:30:0020.30 °C1020.10 hPa60.00 %12.30 °C 
16:15:0020.60 °C1020.00 hPa59.00 %12.30 °C 
16:00:0021.40 °C1020.00 hPa56.00 %12.30 °C 
15:45:0021.40 °C1020.10 hPa56.00 %12.30 °C 
15:30:0021.40 °C1019.90 hPa55.00 %12.00 °C 
15:15:0022.10 °C1020.20 hPa54.00 %12.40 °C 
15:00:0022.30 °C1020.30 hPa55.00 %12.80 °C 
14:45:0021.60 °C1020.30 hPa57.00 %29.88 km/hSO22.60 °C12.70 °C 
14:30:0021.60 °C1020.40 hPa56.00 %12.50 °C 
14:15:0021.60 °C1020.30 hPa55.00 %12.20 °C 
14:00:0021.70 °C1020.50 hPa55.00 %12.30 °C 
13:45:0022.30 °C1020.60 hPa55.00 %12.80 °C 
13:30:0022.50 °C1020.60 hPa55.00 %13.00 °C 
13:15:0022.10 °C1020.50 hPa56.00 %12.90 °C 
13:00:0022.30 °C1020.60 hPa56.00 %13.10 °C 
12:45:0021.90 °C1020.80 hPa56.00 %12.70 °C 
12:30:0021.70 °C1020.70 hPa56.00 %12.50 °C 
12:15:0021.90 °C1020.50 hPa58.00 %19.44 km/hSSW23.20 °C13.30 °C 
12:00:0021.50 °C1020.60 hPa58.00 %12.90 °C 
11:45:0021.60 °C1020.60 hPa58.00 %13.00 °C 
11:30:0021.20 °C1020.40 hPa61.00 %13.40 °C 
11:15:0020.90 °C1020.50 hPa63.00 %13.60 °C 
11:00:0020.40 °C1020.50 hPa63.00 %13.10 °C 
10:45:0020.00 °C1020.40 hPa65.00 %7.92 km/hSO20.00 °C13.20 °C 
10:30:0019.30 °C1020.30 hPa68.00 %13.20 °C 
10:15:0018.90 °C1020.40 hPa70.00 %13.30 °C 
10:00:0018.40 °C1020.40 hPa71.00 %13.10 °C 
09:45:0017.70 °C1020.20 hPa76.00 %13.40 °C 
09:30:0016.90 °C1020.40 hPa78.00 %13.00 °C 
09:15:0016.10 °C1020.20 hPa84.00 %13.40 °C 
09:00:0015.30 °C1020.30 hPa89.00 %13.50 °C 
08:45:0014.10 °C1020.10 hPa93.00 %13.00 °C 
08:30:0012.90 °C1020.30 hPa94.00 %12.00 °C 
08:15:0011.60 °C1020.40 hPa94.00 %10.70 °C 
08:00:0010.60 °C1020.30 hPa95.00 %9.80 °C 
07:45:009.50 °C1020.50 hPa95.00 %18.00 km/hOSO9.20 °C8.70 °C 
07:30:008.50 °C1020.30 hPa95.00 %7.70 °C 
07:15:008.10 °C1020.30 hPa95.00 %7.30 °C 
07:00:007.70 °C1020.10 hPa95.00 %30.96 km/hO6.20 °C7.00 °C 
06:45:007.40 °C1020.10 hPa94.00 %9.00 km/hSO7.40 °C6.50 °C 
06:30:007.10 °C1020.10 hPa94.00 %20.88 km/hOSO6.20 °C6.20 °C 
06:15:006.90 °C1020.00 hPa94.00 %6.00 °C 
06:00:006.90 °C1019.80 hPa94.00 %6.00 °C 
05:45:006.70 °C1019.70 hPa94.00 %5.80 °C 
05:30:006.90 °C1019.90 hPa94.00 %6.00 °C 
05:15:006.90 °C1019.90 hPa94.00 %6.00 °C 
05:00:006.90 °C1019.90 hPa94.00 %6.00 °C 
04:45:007.20 °C1019.80 hPa94.00 %6.30 °C 
04:30:007.20 °C1019.80 hPa94.00 %6.30 °C 
04:15:007.30 °C1019.70 hPa93.00 %6.20 °C 
04:00:007.60 °C1019.90 hPa94.00 %6.70 °C 
03:45:007.60 °C1019.90 hPa94.00 %6.70 °C 
03:30:007.70 °C1019.90 hPa94.00 %6.80 °C 
03:15:007.60 °C1020.10 hPa93.00 %6.50 °C 
03:00:007.60 °C1019.80 hPa93.00 %6.50 °C 
02:45:007.80 °C1019.80 hPa93.00 %6.70 °C 
02:30:007.80 °C1019.80 hPa93.00 %6.70 °C 
02:15:008.10 °C1020.00 hPa93.00 %7.00 °C 
02:00:008.40 °C1020.00 hPa93.00 %7.30 °C 
01:45:008.40 °C1020.00 hPa93.00 %7.30 °C 
01:30:008.40 °C1020.00 hPa93.00 %7.30 °C 
01:15:008.40 °C1020.00 hPa92.00 %7.20 °C 
01:00:008.70 °C1020.00 hPa92.00 %7.50 °C 
00:45:008.90 °C1020.10 hPa92.00 %7.70 °C 
00:30:009.00 °C1019.80 hPa92.00 %7.80 °C 
00:15:009.30 °C1019.90 hPa92.00 %8.10 °C 
00:00:009.40 °C1019.80 hPa92.00 %8.20 °C 

Permanenter Link zu dieser Seite: Wetter im Erzgebirge am 14.08.2017
Performance-Info: Die Erstellung der Seite / Statistik(en) / Tabelle(n) erforderte 5 Datenbankserver-Abfrage(n) und dauerte 97 Millisekunden. (Dieser Messwert ist von der Gesamt-Auslastung des Servers abhängig.)
Erzgebirge - Wetter | Erzgebirge - Wetter (Mobilgeräte) | Komplette Klimadatenbank